LDLO/LSZ METAR and TAF weather

Enter ICAO airport designator
Station Type Date Time Source
LDLO METAR 2018/11/25 15:00 UTC NOAA

LDLO 251500Z 09005KT 9999 -RA FEW010 BKN025 14/13 Q1002


Station Type Date Time Source
LDLO Decoded METAR 2018/11/25 15:00 UTC NOAA

Losinj Island, Croatia (LDLO) 44-33-57N 014-23-35E
Nov 25, 2018 - 10:00 AM EST / 2018.11.25 1500 UTC
Wind: from the E (090 degrees) at 6 MPH (5 KT):0
Visibility: greater than 7 mile(s):0
Sky conditions: mostly cloudy
Weather: light rain
Temperature: 57 F (14 C)
Dew Point: 55 F (13 C)
Relative Humidity: 93%
Pressure (altimeter): 29.59 in. Hg (1002 hPa)
ob: LDLO 251500Z 09005KT 9999 -RA FEW010 BKN025 14/13 Q1002
cycle: 15

Station Type Date Time Source
LDLO TAF 2018/11/25 16:03 UTC NOAA

TAF
AMD TAF
AMD LDLO 251601Z 2516/2612 CNL


Example: see airport list